Time;durP1;ratioP1;P1;durP2;ratioP2;P2;SDS_P1;SDS_P2;PMS_P1;PMS_P2;Temp;Humidity;BMP_temperature;BMP_pressure;BME280_temperature;BME280_humidity;BME280_pressure;Samples;Min_cycle;Max_cycle;Signal;HPM_P1;HPM_P2
2022/03/19 00:02:19;;;;;;;41.63;6.53;;;;;;;;;;5012469;28;20053;-43
2022/03/19 00:04:47;;;;;;;31.77;5.63;;;;;;;;;;4995642;28;20022;-44
2022/03/19 00:07:14;;;;;;;33.75;5.60;;;;;;;;;;5012513;28;20399;-46
2022/03/19 00:09:41;;;;;;;31.20;6.05;;;;;;;;;;5011984;28;20042;-46
2022/03/19 00:12:12;;;;;;;33.03;5.07;;;;;;;;;;5012408;28;20121;-44
2022/03/19 00:14:39;;;;;;;30.17;4.70;;;;;;;;;;5013075;28;20038;-47
2022/03/19 00:17:06;;;;;;;37.45;5.60;;;;;;;;;;5000192;28;20091;-47
2022/03/19 00:19:33;;;;;;;44.80;6.35;;;;;;;;;;4996517;28;20117;-45
2022/03/19 00:22:00;;;;;;;40.33;6.28;;;;;;;;;;4993495;28;20029;-46
2022/03/19 00:24:27;;;;;;;37.28;6.20;;;;;;;;;;5003165;28;20034;-46
2022/03/19 00:26:53;;;;;;;36.92;5.38;;;;;;;;;;5000785;28;20644;-48
2022/03/19 00:29:20;;;;;;;37.05;5.25;;;;;;;;;;4994780;28;20027;-46
2022/03/19 00:31:47;;;;;;;34.00;6.10;;;;;;;;;;4992087;28;20034;-48
2022/03/19 00:34:15;;;;;;;37.05;6.03;;;;;;;;;;4992023;28;20448;-50
2022/03/19 00:36:42;;;;;;;27.92;5.40;;;;;;;;;;4997770;28;20065;-46
2022/03/19 00:39:09;;;;;;;30.08;5.75;;;;;;;;;;4991033;28;20042;-43
2022/03/19 00:41:36;;;;;;;35.80;5.43;;;;;;;;;;4993228;28;20062;-47
2022/03/19 00:44:03;;;;;;;34.42;5.70;;;;;;;;;;4985520;28;20057;-46
2022/03/19 00:46:30;;;;;;;29.60;5.78;;;;;;;;;;4978822;28;20196;-46
2022/03/19 00:48:59;;;;;;;37.28;5.90;;;;;;;;;;4992688;28;20038;-47
2022/03/19 00:51:26;;;;;;;34.67;6.45;;;;;;;;;;4991193;28;20042;-45
2022/03/19 00:53:53;;;;;;;25.55;5.88;;;;;;;;;;4992302;28;20046;-44
2022/03/19 00:56:20;;;;;;;30.67;5.22;;;;;;;;;;4991971;28;20168;-45
2022/03/19 00:58:47;;;;;;;26.90;5.72;;;;;;;;;;4991653;28;20081;-45
2022/03/19 01:01:14;;;;;;;24.48;5.18;;;;;;;;;;4990449;28;20034;-45
2022/03/19 01:03:41;;;;;;;27.80;5.70;;;;;;;;;;4992189;28;20081;-44
2022/03/19 01:06:08;;;;;;;22.65;5.22;;;;;;;;;;4991653;28;20595;-44
2022/03/19 01:08:35;;;;;;;22.42;4.60;;;;;;;;;;4992282;28;20041;-44
2022/03/19 01:11:03;;;;;;;30.58;4.97;;;;;;;;;;4976391;28;20046;-44
2022/03/19 01:13:30;;;;;;;25.45;5.85;;;;;;;;;;5003586;28;20467;-45
2022/03/19 01:15:57;;;;;;;24.52;5.20;;;;;;;;;;5004955;28;20429;-48
2022/03/19 01:18:24;;;;;;;24.58;5.13;;;;;;;;;;4992475;28;20065;-45
2022/03/19 01:20:51;;;;;;;17.75;4.60;;;;;;;;;;5007890;28;20034;-44
2022/03/19 01:23:18;;;;;;;24.25;5.18;;;;;;;;;;5001239;28;20083;-47
2022/03/19 01:25:46;;;;;;;18.30;4.55;;;;;;;;;;5002391;28;20018;-46
2022/03/19 01:28:13;;;;;;;17.45;4.82;;;;;;;;;;4996358;28;20026;-46
2022/03/19 01:30:40;;;;;;;19.17;4.20;;;;;;;;;;4999456;28;20491;-47
2022/03/19 01:33:07;;;;;;;21.48;5.25;;;;;;;;;;4999987;28;20029;-46
2022/03/19 01:35:34;;;;;;;20.52;4.70;;;;;;;;;;5006222;28;20037;-46
2022/03/19 01:38:04;;;;;;;22.27;4.93;;;;;;;;;;5001294;28;20040;-44
2022/03/19 01:40:31;;;;;;;32.17;5.70;;;;;;;;;;5019722;28;20041;-45
2022/03/19 01:43:00;;;;;;;22.17;5.13;;;;;;;;;;5025006;28;20480;-44
2022/03/19 01:45:27;;;;;;;27.58;5.65;;;;;;;;;;5013042;28;20120;-48
2022/03/19 01:47:55;;;;;;;31.35;5.90;;;;;;;;;;5001603;28;20018;-46
2022/03/19 01:50:22;;;;;;;18.25;5.43;;;;;;;;;;4998654;28;20049;-45
2022/03/19 01:52:49;;;;;;;27.95;6.22;;;;;;;;;;4994388;28;20045;-45
2022/03/19 01:55:20;;;;;;;24.60;5.65;;;;;;;;;;5000373;28;20033;-48
2022/03/19 01:57:48;;;;;;;22.83;5.40;;;;;;;;;;5007160;28;20038;-45
2022/03/19 02:00:17;;;;;;;22.45;5.72;;;;;;;;;;5002413;28;20026;-44
2022/03/19 02:02:48;;;;;;;23.42;5.40;;;;;;;;;;5003383;28;20034;-45
2022/03/19 02:05:16;;;;;;;17.33;5.45;;;;;;;;;;4995876;28;20085;-48
2022/03/19 02:07:44;;;;;;;19.25;5.55;;;;;;;;;;5000570;28;20069;-45
2022/03/19 02:10:11;;;;;;;20.25;5.03;;;;;;;;;;5001052;28;20038;-47
2022/03/19 02:12:38;;;;;;;21.15;5.60;;;;;;;;;;4996519;28;20121;-45
2022/03/19 02:15:06;;;;;;;20.40;5.30;;;;;;;;;;4994772;28;20026;-47
2022/03/19 02:17:34;;;;;;;21.25;5.30;;;;;;;;;;4998318;28;20018;-46
2022/03/19 02:20:01;;;;;;;22.83;5.07;;;;;;;;;;4999890;28;20026;-45
2022/03/19 02:22:29;;;;;;;16.77;5.10;;;;;;;;;;5001210;28;20026;-43
2022/03/19 02:27:43;;;;;;;22.13;5.63;;;;;;;;;;5002559;28;20496;-46
2022/03/19 02:30:11;;;;;;;25.48;5.30;;;;;;;;;;5000291;28;20039;-46
2022/03/19 02:32:43;;;;;;;19.40;5.15;;;;;;;;;;5000194;28;20033;-47
2022/03/19 02:35:10;;;;;;;;;;;;;;;;;;5000474;28;20480;-45
2022/03/19 02:37:44;;;;;;;17.40;5.70;;;;;;;;;;5001880;28;20029;-44
2022/03/19 02:40:13;;;;;;;17.77;5.40;;;;;;;;;;5001419;28;20060;-46
2022/03/19 02:42:40;;;;;;;18.08;4.85;;;;;;;;;;4996677;28;20097;-46
2022/03/19 02:45:08;;;;;;;17.33;4.55;;;;;;;;;;4991969;28;20026;-44
2022/03/19 02:47:56;;;;;;;25.27;5.72;;;;;;;;;;4991376;28;20489;-45
2022/03/19 02:50:22;;;;;;;40.25;5.82;;;;;;;;;;4991358;28;20090;-45
2022/03/19 02:52:49;;;;;;;21.95;5.22;;;;;;;;;;4993373;28;20484;-45
2022/03/19 02:55:17;;;;;;;28.48;5.35;;;;;;;;;;4998080;28;20030;-48
2022/03/19 02:57:44;;;;;;;21.70;5.30;;;;;;;;;;4982443;28;20081;-47
2022/03/19 03:00:11;;;;;;;26.25;5.38;;;;;;;;;;4998554;28;20092;-45
2022/03/19 03:02:38;;;;;;;26.88;5.88;;;;;;;;;;5002541;28;20030;-45
2022/03/19 03:05:05;;;;;;;24.45;6.30;;;;;;;;;;5003885;28;20507;-46
2022/03/19 03:07:32;;;;;;;25.98;5.85;;;;;;;;;;5004500;28;20034;-47
2022/03/19 03:10:00;;;;;;;25.40;5.45;;;;;;;;;;5003146;28;20107;-49
2022/03/19 03:12:27;;;;;;;26.33;5.57;;;;;;;;;;4986521;28;20149;-46
2022/03/19 03:14:55;;;;;;;22.70;5.72;;;;;;;;;;5003665;28;20033;-46
2022/03/19 03:17:23;;;;;;;19.13;5.15;;;;;;;;;;5015600;28;20038;-45
2022/03/19 03:19:51;;;;;;;19.20;4.88;;;;;;;;;;5014921;28;20049;-45
2022/03/19 03:22:18;;;;;;;23.52;5.38;;;;;;;;;;5015189;28;20041;-44
2022/03/19 03:24:45;;;;;;;19.92;5.15;;;;;;;;;;5014694;28;20486;-47
2022/03/19 03:27:12;;;;;;;24.08;5.50;;;;;;;;;;5015553;28;20041;-44
2022/03/19 03:29:39;;;;;;;20.90;5.40;;;;;;;;;;5014905;28;20065;-45
2022/03/19 03:32:06;;;;;;;22.10;4.80;;;;;;;;;;5014718;28;20033;-45
2022/03/19 03:34:33;;;;;;;21.58;4.55;;;;;;;;;;5015542;28;20029;-44
2022/03/19 03:37:00;;;;;;;27.83;5.45;;;;;;;;;;5014891;28;20415;-45
2022/03/19 03:39:27;;;;;;;28.75;5.68;;;;;;;;;;5014864;28;20030;-45
2022/03/19 03:41:54;;;;;;;15.43;4.80;;;;;;;;;;5014541;28;20041;-44
2022/03/19 03:44:21;;;;;;;21.85;5.28;;;;;;;;;;5015272;28;20431;-46
2022/03/19 03:46:48;;;;;;;20.50;4.75;;;;;;;;;;5014648;28;20064;-45
2022/03/19 03:49:15;;;;;;;21.20;4.82;;;;;;;;;;5014760;28;20036;-45
2022/03/19 03:51:42;;;;;;;20.48;5.03;;;;;;;;;;5015268;28;20061;-44
2022/03/19 03:54:09;;;;;;;15.32;4.13;;;;;;;;;;5014506;28;20431;-45
2022/03/19 03:56:36;;;;;;;17.38;4.55;;;;;;;;;;5014307;28;20041;-46
2022/03/19 03:59:03;;;;;;;20.38;4.65;;;;;;;;;;5014547;28;20054;-44
2022/03/19 04:01:30;;;;;;;16.90;4.60;;;;;;;;;;5014414;28;20113;-44
2022/03/19 04:03:57;;;;;;;20.85;4.25;;;;;;;;;;5014780;28;20511;-45
2022/03/19 04:06:24;;;;;;;16.30;4.32;;;;;;;;;;5014052;28;20029;-46
2022/03/19 04:08:51;;;;;;;16.45;4.90;;;;;;;;;;5014535;28;20049;-44
2022/03/19 04:11:18;;;;;;;18.10;4.57;;;;;;;;;;5014691;28;20109;-44
2022/03/19 04:13:45;;;;;;;17.30;4.30;;;;;;;;;;5013451;28;20034;-44
2022/03/19 04:16:12;;;;;;;15.75;4.55;;;;;;;;;;5014075;28;20037;-44
2022/03/19 04:18:40;;;;;;;17.10;4.68;;;;;;;;;;5014504;28;20044;-45
2022/03/19 04:21:07;;;;;;;14.98;3.95;;;;;;;;;;5013668;28;20049;-45
2022/03/19 04:23:34;;;;;;;16.08;4.40;;;;;;;;;;5014557;28;20057;-46
2022/03/19 04:26:02;;;;;;;20.00;4.35;;;;;;;;;;5013814;28;20077;-45
2022/03/19 04:28:29;;;;;;;14.77;4.75;;;;;;;;;;5014295;28;20404;-46
2022/03/19 04:30:56;;;;;;;15.90;4.18;;;;;;;;;;5013649;28;20476;-44
2022/03/19 04:33:23;;;;;;;12.70;4.00;;;;;;;;;;5014459;28;20022;-45
2022/03/19 04:38:35;;;;;;;13.27;4.45;;;;;;;;;;5013860;28;20061;-45
2022/03/19 04:41:02;;;;;;;11.80;3.58;;;;;;;;;;5013774;28;20030;-45
2022/03/19 04:43:29;;;;;;;12.07;3.88;;;;;;;;;;5013369;28;20398;-45
2022/03/19 04:45:56;;;;;;;16.85;4.30;;;;;;;;;;5013681;28;20026;-44
2022/03/19 04:48:23;;;;;;;11.10;4.35;;;;;;;;;;5013653;28;20041;-45
2022/03/19 04:50:51;;;;;;;15.70;4.13;;;;;;;;;;5013283;28;20026;-45
2022/03/19 04:53:19;;;;;;;10.35;3.45;;;;;;;;;;5014049;28;20026;-45
2022/03/19 04:55:49;;;;;;;12.77;3.83;;;;;;;;;;4996128;28;20026;-45
2022/03/19 04:58:16;;;;;;;14.32;3.55;;;;;;;;;;5013138;28;20408;-44
2022/03/19 05:00:43;;;;;;;11.40;3.50;;;;;;;;;;5013088;28;20550;-45
2022/03/19 05:03:13;;;;;;;14.57;3.90;;;;;;;;;;5013549;28;20029;-46
2022/03/19 05:05:40;;;;;;;11.13;3.50;;;;;;;;;;5013136;28;20061;-45
2022/03/19 05:08:07;;;;;;;10.90;3.65;;;;;;;;;;5013268;28;20591;-44
2022/03/19 05:13:27;;;;;;;13.18;3.45;;;;;;;;;;4990475;28;20037;-46
2022/03/19 05:15:54;;;;;;;10.73;3.42;;;;;;;;;;5013006;28;20018;-49
2022/03/19 05:18:21;;;;;;;14.18;4.07;;;;;;;;;;5013445;28;20105;-44
2022/03/19 05:20:48;;;;;;;10.98;3.85;;;;;;;;;;5013107;28;20044;-48
2022/03/19 05:23:15;;;;;;;12.55;3.55;;;;;;;;;;5013532;28;20534;-49
2022/03/19 05:25:42;;;;;;;11.32;3.47;;;;;;;;;;5011725;28;20054;-48
2022/03/19 05:28:09;;;;;;;11.63;3.40;;;;;;;;;;4995677;28;20579;-46
2022/03/19 05:30:37;;;;;;;7.55;3.20;;;;;;;;;;5013234;28;20085;-46
2022/03/19 05:33:05;;;;;;;9.98;3.13;;;;;;;;;;5014529;28;20028;-45
2022/03/19 05:35:32;;;;;;;11.93;3.30;;;;;;;;;;5013943;28;20539;-48
2022/03/19 05:37:59;;;;;;;16.25;3.40;;;;;;;;;;5012859;28;20033;-46
2022/03/19 05:40:28;;;;;;;9.95;3.30;;;;;;;;;;5012697;28;20084;-49
2022/03/19 05:42:55;;;;;;;10.77;2.95;;;;;;;;;;5012246;28;20560;-45
2022/03/19 05:45:22;;;;;;;8.88;3.38;;;;;;;;;;5012646;28;20025;-48
2022/03/19 05:47:49;;;;;;;11.32;3.38;;;;;;;;;;5012913;28;20510;-51
2022/03/19 05:50:16;;;;;;;11.02;3.42;;;;;;;;;;5012022;28;20112;-45
2022/03/19 05:52:46;;;;;;;10.07;2.90;;;;;;;;;;5013083;28;20041;-49
2022/03/19 05:55:14;;;;;;;11.32;3.15;;;;;;;;;;5012117;28;20381;-49
2022/03/19 05:57:41;;;;;;;11.00;3.30;;;;;;;;;;5013055;28;20444;-49
2022/03/19 06:00:11;;;;;;;9.20;2.88;;;;;;;;;;5012772;28;20500;-45
2022/03/19 06:02:42;;;;;;;9.95;2.90;;;;;;;;;;5012824;28;20030;-47
2022/03/19 06:05:09;;;;;;;9.57;3.03;;;;;;;;;;5011856;28;20030;-46
2022/03/19 06:07:36;;;;;;;7.90;3.03;;;;;;;;;;5012883;28;20125;-45
2022/03/19 06:10:06;;;;;;;9.75;2.53;;;;;;;;;;5011928;28;20049;-47
2022/03/19 06:12:33;;;;;;;9.82;2.80;;;;;;;;;;5012573;28;20064;-49
2022/03/19 06:15:00;;;;;;;11.90;2.72;;;;;;;;;;5012712;28;20119;-47
2022/03/19 06:17:27;;;;;;;9.23;2.47;;;;;;;;;;5011752;28;20108;-48
2022/03/19 06:19:54;;;;;;;7.43;2.63;;;;;;;;;;5012610;28;20038;-44
2022/03/19 06:22:22;;;;;;;6.70;2.60;;;;;;;;;;4994159;28;20041;-48
2022/03/19 06:24:50;;;;;;;8.25;2.47;;;;;;;;;;5012468;28;20033;-44
2022/03/19 06:27:17;;;;;;;4.72;2.30;;;;;;;;;;5011680;28;20076;-45
2022/03/19 06:29:44;;;;;;;7.75;2.85;;;;;;;;;;5012566;28;20459;-47
2022/03/19 06:32:11;;;;;;;8.65;2.20;;;;;;;;;;5149616;23;21063;-45
2022/03/19 06:34:38;;;;;;;9.95;2.50;;;;;;;;;;5012271;28;20387;-46
2022/03/19 06:37:20;;;;;;;8.57;2.22;;;;;;;;;;5013871;28;20029;-45
2022/03/19 06:39:49;;;;;;;9.75;2.70;;;;;;;;;;5016543;28;20022;-47
2022/03/19 06:42:16;;;;;;;9.55;2.50;;;;;;;;;;5016398;28;20024;-46
2022/03/19 06:44:43;;;;;;;6.32;2.45;;;;;;;;;;5015401;28;20034;-48
2022/03/19 06:47:10;;;;;;;5.18;2.00;;;;;;;;;;5016127;28;20081;-46
2022/03/19 06:49:37;;;;;;;4.78;1.92;;;;;;;;;;5015610;28;20062;-45
2022/03/19 06:52:04;;;;;;;6.82;2.00;;;;;;;;;;5015411;28;20479;-44
2022/03/19 06:54:33;;;;;;;4.78;2.03;;;;;;;;;;5015959;28;20030;-49
2022/03/19 06:57:00;;;;;;;6.18;2.10;;;;;;;;;;5015657;28;20052;-43
2022/03/19 06:59:27;;;;;;;7.47;2.17;;;;;;;;;;5016111;28;20101;-44
2022/03/19 07:01:55;;;;;;;5.82;2.38;;;;;;;;;;5015184;28;20045;-45
2022/03/19 07:04:22;;;;;;;7.38;2.45;;;;;;;;;;5015995;28;20033;-47
2022/03/19 07:06:49;;;;;;;8.63;2.00;;;;;;;;;;5015722;28;20037;-46
2022/03/19 07:09:16;;;;;;;5.10;1.92;;;;;;;;;;5015384;28;20030;-43
2022/03/19 07:11:43;;;;;;;12.15;2.13;;;;;;;;;;5015857;28;20089;-44
2022/03/19 07:14:10;;;;;;;6.95;1.98;;;;;;;;;;5014965;28;20523;-45
2022/03/19 07:16:37;;;;;;;5.85;2.05;;;;;;;;;;5015893;28;20034;-46
2022/03/19 07:19:04;;;;;;;4.20;1.65;;;;;;;;;;5015736;28;20034;-46
2022/03/19 07:21:31;;;;;;;4.75;1.80;;;;;;;;;;5015111;28;20039;-44
2022/03/19 07:23:58;;;;;;;7.65;2.03;;;;;;;;;;5015652;28;20141;-44
2022/03/19 07:26:26;;;;;;;8.10;2.22;;;;;;;;;;4997173;28;20030;-44
2022/03/19 07:28:53;;;;;;;8.05;2.05;;;;;;;;;;5014881;28;20076;-43
2022/03/19 07:31:20;;;;;;;4.68;2.03;;;;;;;;;;5015120;28;20116;-46
2022/03/19 07:33:50;;;;;;;5.93;1.92;;;;;;;;;;5014257;28;20030;-47
2022/03/19 07:36:20;;;;;;;7.95;1.85;;;;;;;;;;5015400;28;20149;-45
2022/03/19 07:38:47;;;;;;;3.78;1.65;;;;;;;;;;5014852;28;20041;-46
2022/03/19 07:44:00;;;;;;;5.68;1.80;;;;;;;;;;5015330;28;20084;-43
2022/03/19 07:46:27;;;;;;;7.38;1.70;;;;;;;;;;5014863;28;20033;-46
2022/03/19 07:48:55;;;;;;;4.55;1.80;;;;;;;;;;5013601;28;20038;-47
2022/03/19 07:51:22;;;;;;;7.32;1.50;;;;;;;;;;5014683;28;20484;-45
2022/03/19 07:53:49;;;;;;;6.03;2.00;;;;;;;;;;5014793;28;20038;-45
2022/03/19 07:56:16;;;;;;;7.03;2.20;;;;;;;;;;5014500;28;20045;-46
2022/03/19 07:58:43;;;;;;;4.68;1.48;;;;;;;;;;5014457;28;20094;-44
2022/03/19 08:01:10;;;;;;;4.65;1.60;;;;;;;;;;4997177;28;20030;-45
2022/03/19 08:03:37;;;;;;;5.20;1.45;;;;;;;;;;5014318;28;20033;-46
2022/03/19 08:06:04;;;;;;;7.30;1.52;;;;;;;;;;5014559;28;20033;-46
2022/03/19 08:08:33;;;;;;;6.95;1.75;;;;;;;;;;5014182;28;20499;-44
2022/03/19 08:11:00;;;;;;;5.55;1.40;;;;;;;;;;5014321;28;20407;-44
2022/03/19 08:13:27;;;;;;;4.95;1.63;;;;;;;;;;5014749;28;20087;-43
2022/03/19 08:15:54;;;;;;;4.15;1.67;;;;;;;;;;5013862;28;20396;-45
2022/03/19 08:18:20;;;;;;;3.90;1.58;;;;;;;;;;5014165;28;20026;-44
2022/03/19 08:20:47;;;;;;;6.90;1.67;;;;;;;;;;5014532;28;20033;-44
2022/03/19 08:23:20;;;;;;;3.95;1.60;;;;;;;;;;5013633;28;20030;-44
2022/03/19 08:25:46;;;;;;;;;;;;;;;;;;5014907;28;20034;-43
2022/03/19 08:28:13;;;;;;;10.63;1.40;;;;;;;;;;5013652;28;19945;-42
2022/03/19 08:30:40;;;;;;;3.72;1.33;;;;;;;;;;5014373;28;20372;-46
2022/03/19 08:33:07;;;;;;;5.88;1.65;;;;;;;;;;5013369;28;20046;-46
2022/03/19 08:35:34;;;;;;;5.28;1.50;;;;;;;;;;5013253;28;20507;-44
2022/03/19 08:40:46;;;;;;;4.72;1.25;;;;;;;;;;5013441;28;20091;-45
2022/03/19 08:43:13;;;;;;;5.03;1.88;;;;;;;;;;5014248;28;20026;-47
2022/03/19 08:45:40;;;;;;;6.50;1.63;;;;;;;;;;5005715;28;20101;-39
2022/03/19 08:48:09;;;;;;;4.85;1.50;;;;;;;;;;5003759;28;20034;-44
2022/03/19 08:50:36;;;;;;;5.03;1.30;;;;;;;;;;5007751;28;20507;-48
2022/03/19 08:53:04;;;;;;;7.15;1.60;;;;;;;;;;5013315;28;20105;-47
2022/03/19 08:55:30;;;;;;;3.50;1.27;;;;;;;;;;5012888;28;20044;-43
2022/03/19 08:57:57;;;;;;;3.03;1.40;;;;;;;;;;5013543;28;20488;-44
2022/03/19 09:00:24;;;;;;;4.47;1.50;;;;;;;;;;5012210;28;20038;-47
2022/03/19 09:02:51;;;;;;;4.85;1.40;;;;;;;;;;5013296;28;20022;-46
2022/03/19 09:05:20;;;;;;;6.57;1.20;;;;;;;;;;5013260;28;20030;-46
2022/03/19 09:07:47;;;;;;;8.13;1.70;;;;;;;;;;5012328;28;20026;-48
2022/03/19 09:10:14;;;;;;;5.50;1.10;;;;;;;;;;5012311;28;20062;-47
2022/03/19 09:12:41;;;;;;;3.42;1.20;;;;;;;;;;5013014;28;20107;-47
2022/03/19 09:15:10;;;;;;;3.13;1.23;;;;;;;;;;5012592;28;20036;-45
2022/03/19 09:17:37;;;;;;;6.25;1.40;;;;;;;;;;5013095;28;20022;-47
2022/03/19 09:20:04;;;;;;;5.40;1.55;;;;;;;;;;5012561;28;20065;-49
2022/03/19 09:22:31;;;;;;;2.85;1.25;;;;;;;;;;5012554;28;20030;-45
2022/03/19 09:24:58;;;;;;;2.95;1.25;;;;;;;;;;5012403;28;20032;-48
2022/03/19 09:27:25;;;;;;;3.88;1.10;;;;;;;;;;5012606;28;20030;-45
2022/03/19 09:29:52;;;;;;;5.38;1.55;;;;;;;;;;5012913;28;20504;-48
2022/03/19 09:32:19;;;;;;;4.07;1.00;;;;;;;;;;5011550;28;20524;-44
2022/03/19 09:34:49;;;;;;;4.45;1.15;;;;;;;;;;5012902;28;20040;-46
2022/03/19 09:37:16;;;;;;;3.92;1.10;;;;;;;;;;5012096;28;20033;-45
2022/03/19 09:39:43;;;;;;;3.53;1.40;;;;;;;;;;5012516;28;20025;-45
2022/03/19 09:42:14;;;;;;;3.72;1.20;;;;;;;;;;5012683;28;20049;-45
2022/03/19 09:44:44;;;;;;;5.68;1.40;;;;;;;;;;5011686;28;20018;-46
2022/03/19 09:47:12;;;;;;;4.53;0.98;;;;;;;;;;5012735;28;20088;-48
2022/03/19 09:49:39;;;;;;;6.15;1.30;;;;;;;;;;5011875;28;20026;-48
2022/03/19 09:52:06;;;;;;;4.40;1.00;;;;;;;;;;5012090;28;20492;-49
2022/03/19 09:54:33;;;;;;;4.50;1.27;;;;;;;;;;5012562;28;20026;-48
2022/03/19 09:57:00;;;;;;;1.85;0.90;;;;;;;;;;5012097;28;20026;-44
2022/03/19 09:59:28;;;;;;;4.30;1.02;;;;;;;;;;5011600;28;20034;-49
2022/03/19 10:01:55;;;;;;;3.20;1.20;;;;;;;;;;5012027;28;20037;-47
2022/03/19 10:04:22;;;;;;;3.72;1.40;;;;;;;;;;5012319;28;20412;-49
2022/03/19 10:09:41;;;;;;;4.03;1.00;;;;;;;;;;5011421;28;20049;-47
2022/03/19 10:12:12;;;;;;;2.03;1.00;;;;;;;;;;5011105;28;20065;-48
2022/03/19 10:14:39;;;;;;;4.33;1.40;;;;;;;;;;5011868;28;20037;-44
2022/03/19 10:17:06;;;;;;;3.45;1.15;;;;;;;;;;5012285;28;20156;-48
2022/03/19 10:19:34;;;;;;;3.58;0.93;;;;;;;;;;5011245;28;20522;-48
2022/03/19 10:22:10;;;;;;;6.50;1.08;;;;;;;;;;5011877;28;20498;-46
2022/03/19 10:24:38;;;;;;;6.07;1.20;;;;;;;;;;5011645;28;20607;-48
2022/03/19 10:27:05;;;;;;;4.07;0.90;;;;;;;;;;4994154;28;20030;-48
2022/03/19 10:29:35;;;;;;;5.70;1.25;;;;;;;;;;5012100;28;20097;-44
2022/03/19 10:32:04;;;;;;;3.70;1.45;;;;;;;;;;5010673;28;20097;-48
2022/03/19 10:34:33;;;;;;;3.80;1.00;;;;;;;;;;5011403;28;20034;-44
2022/03/19 10:37:00;;;;;;;4.50;1.23;;;;;;;;;;5011701;28;20034;-50
2022/03/19 10:39:28;;;;;;;3.50;1.20;;;;;;;;;;5011883;28;20034;-45
2022/03/19 10:41:56;;;;;;;4.60;1.25;;;;;;;;;;5010778;28;20120;-44
2022/03/19 10:44:27;;;;;;;5.10;1.20;;;;;;;;;;5011995;28;20033;-49
2022/03/19 10:46:54;;;;;;;2.05;1.00;;;;;;;;;;5011388;28;20734;-48
2022/03/19 10:49:23;;;;;;;4.82;1.10;;;;;;;;;;5011539;28;20025;-47
2022/03/19 10:51:51;;;;;;;4.80;0.90;;;;;;;;;;5011096;28;20069;-48
2022/03/19 10:54:18;;;;;;;4.47;1.17;;;;;;;;;;5011048;28;20400;-50
2022/03/19 10:56:46;;;;;;;4.03;1.10;;;;;;;;;;5011833;28;20433;-47
2022/03/19 10:59:13;;;;;;;4.25;1.05;;;;;;;;;;5011656;28;20034;-49
2022/03/19 11:01:41;;;;;;;2.70;1.00;;;;;;;;;;5011491;28;20041;-46
2022/03/19 11:04:09;;;;;;;3.47;1.20;;;;;;;;;;5010638;28;20038;-46
2022/03/19 11:06:37;;;;;;;3.35;1.48;;;;;;;;;;5011815;28;20514;-45
2022/03/19 11:09:06;;;;;;;2.63;1.00;;;;;;;;;;5011380;28;20048;-46
2022/03/19 11:11:36;;;;;;;4.07;1.30;;;;;;;;;;5011074;28;20056;-44
2022/03/19 11:14:03;;;;;;;5.38;1.15;;;;;;;;;;5010828;28;20432;-46
2022/03/19 11:16:35;;;;;;;4.35;1.02;;;;;;;;;;5010958;28;20034;-47
2022/03/19 11:19:03;;;;;;;3.13;1.00;;;;;;;;;;5011244;28;20373;-47
2022/03/19 11:21:33;;;;;;;3.78;1.20;;;;;;;;;;5007405;28;20029;-47
2022/03/19 11:24:22;;;;;;;5.95;1.45;;;;;;;;;;4995802;28;20034;-46
2022/03/19 11:26:50;;;;;;;8.15;1.65;;;;;;;;;;4986861;28;20034;-43
2022/03/19 11:29:19;;;;;;;5.72;1.15;;;;;;;;;;4995139;28;20037;-42
2022/03/19 11:31:57;;;;;;;7.10;1.17;;;;;;;;;;4992496;28;20129;-42
2022/03/19 11:34:25;;;;;;;5.18;1.05;;;;;;;;;;4994285;28;20046;-46
2022/03/19 11:36:55;;;;;;;8.18;1.73;;;;;;;;;;5020299;28;20036;-50
2022/03/19 11:39:22;;;;;;;6.93;2.40;;;;;;;;;;5033261;28;20034;-44
2022/03/19 11:41:50;;;;;;;17.05;2.30;;;;;;;;;;5033869;28;20061;-46
2022/03/19 11:44:23;;;;;;;10.20;2.50;;;;;;;;;;5033802;28;20025;-48
2022/03/19 11:46:59;;;;;;;9.25;2.50;;;;;;;;;;5033152;28;20038;-46
2022/03/19 11:49:44;;;;;;;8.65;2.40;;;;;;;;;;5033984;28;20017;-44
2022/03/19 11:52:12;;;;;;;13.63;2.35;;;;;;;;;;5002918;28;20092;-44
2022/03/19 11:54:58;;;;;;;8.02;2.90;;;;;;;;;;4997401;28;20026;-42
2022/03/19 11:57:26;;;;;;;10.73;2.63;;;;;;;;;;4993975;28;20076;-44
2022/03/19 11:59:58;;;;;;;11.65;2.45;;;;;;;;;;4994548;28;20058;-45
2022/03/19 12:02:26;;;;;;;11.85;2.30;;;;;;;;;;4994243;28;20022;-42
2022/03/19 12:04:55;;;;;;;9.38;2.22;;;;;;;;;;5000249;28;20550;-46
2022/03/19 12:07:42;;;;;;;8.80;2.20;;;;;;;;;;5014402;28;20072;-48
2022/03/19 12:10:14;;;;;;;13.82;2.83;;;;;;;;;;5014019;28;20124;-46
2022/03/19 12:12:45;;;;;;;10.70;2.50;;;;;;;;;;5013054;28;20061;-46
2022/03/19 12:15:30;;;;;;;12.18;2.83;;;;;;;;;;5014298;28;21045;-47
2022/03/19 12:18:15;;;;;;;11.75;2.63;;;;;;;;;;5013647;28;20373;-48
2022/03/19 12:20:45;;;;;;;13.20;2.00;;;;;;;;;;5013112;28;20384;-43
2022/03/19 12:23:14;;;;;;;17.63;2.55;;;;;;;;;;5013085;28;21158;-44
2022/03/19 12:25:50;;;;;;;11.77;2.20;;;;;;;;;;5013315;28;20084;-44
2022/03/19 12:28:17;;;;;;;16.80;1.77;;;;;;;;;;5013673;28;20113;-50
2022/03/19 12:30:44;;;;;;;10.35;2.60;;;;;;;;;;5012870;28;20088;-47
2022/03/19 12:33:11;;;;;;;18.27;2.00;;;;;;;;;;5012816;28;20857;-45
2022/03/19 12:35:43;;;;;;;20.40;2.17;;;;;;;;;;5012662;28;20045;-44
2022/03/19 12:38:10;;;;;;;27.60;3.95;;;;;;;;;;5013992;28;20029;-44
2022/03/19 12:43:35;;;;;;;25.40;3.30;;;;;;;;;;5013679;28;20052;-47
2022/03/19 12:46:02;;;;;;;24.95;2.28;;;;;;;;;;4994961;28;20495;-48
2022/03/19 12:48:31;;;;;;;30.38;3.40;;;;;;;;;;5013308;28;20021;-46
2022/03/19 12:50:58;;;;;;;27.48;3.00;;;;;;;;;;5012176;28;20474;-45
2022/03/19 12:53:39;;;;;;;19.65;2.40;;;;;;;;;;5013375;28;20057;-43
2022/03/19 12:56:17;;;;;;;24.65;3.00;;;;;;;;;;5013036;28;20033;-45
2022/03/19 12:58:45;;;;;;;30.55;2.97;;;;;;;;;;5010146;28;20092;-40
2022/03/19 13:01:12;;;;;;;31.83;3.63;;;;;;;;;;5013047;28;20030;-49
2022/03/19 13:03:41;;;;;;;19.77;2.60;;;;;;;;;;5014548;28;20495;-42
2022/03/19 13:06:09;;;;;;;16.98;2.45;;;;;;;;;;5032704;28;20436;-40
2022/03/19 13:08:46;;;;;;;29.65;2.83;;;;;;;;;;5032734;28;20356;-41
2022/03/19 13:11:13;;;;;;;20.88;2.00;;;;;;;;;;5031244;28;20095;-41
2022/03/19 13:13:41;;;;;;;13.25;1.77;;;;;;;;;;5031636;28;20056;-45
2022/03/19 13:16:08;;;;;;;19.08;2.30;;;;;;;;;;5032492;28;20025;-45
2022/03/19 13:18:36;;;;;;;31.98;2.80;;;;;;;;;;5031105;28;20032;-42
2022/03/19 13:21:10;;;;;;;20.55;2.05;;;;;;;;;;5032262;28;20087;-41
2022/03/19 13:23:39;;;;;;;25.40;2.63;;;;;;;;;;5031720;28;20136;-42
2022/03/19 13:26:09;;;;;;;25.60;2.55;;;;;;;;;;5031827;28;20025;-39
2022/03/19 13:28:37;;;;;;;17.17;2.30;;;;;;;;;;5033751;28;20077;-40
2022/03/19 13:31:04;;;;;;;18.35;1.95;;;;;;;;;;5033479;28;20032;-39
2022/03/19 13:33:31;;;;;;;28.00;2.70;;;;;;;;;;5032613;28;20048;-45
2022/03/19 13:35:59;;;;;;;30.60;2.58;;;;;;;;;;5031884;28;20476;-44
2022/03/19 13:38:26;;;;;;;36.42;3.95;;;;;;;;;;5032589;28;20100;-42
2022/03/19 13:40:55;;;;;;;36.00;3.10;;;;;;;;;;5032465;28;20021;-43
2022/03/19 13:43:24;;;;;;;35.40;3.72;;;;;;;;;;5029594;28;20044;-43
2022/03/19 13:46:11;;;;;;;33.33;3.70;;;;;;;;;;5011499;28;20024;-41
2022/03/19 13:48:39;;;;;;;40.78;3.45;;;;;;;;;;5011338;28;20100;-40
2022/03/19 13:51:06;;;;;;;35.42;3.30;;;;;;;;;;5012632;28;20057;-43
2022/03/19 13:53:43;;;;;;;28.08;3.15;;;;;;;;;;5011791;28;20026;-43
2022/03/19 13:56:11;;;;;;;35.95;3.05;;;;;;;;;;5011585;28;20021;-40
2022/03/19 13:58:38;;;;;;;50.00;3.75;;;;;;;;;;5012444;28;20026;-42
2022/03/19 14:01:12;;;;;;;24.48;2.70;;;;;;;;;;5011419;28;20107;-43
2022/03/19 14:03:40;;;;;;;29.55;2.50;;;;;;;;;;5012014;28;20022;-41
2022/03/19 14:06:11;;;;;;;22.33;2.40;;;;;;;;;;5010933;28;20038;-45
2022/03/19 14:08:39;;;;;;;22.20;2.33;;;;;;;;;;5011955;28;20042;-44
2022/03/19 14:11:14;;;;;;;36.33;4.32;;;;;;;;;;4993994;28;20045;-43
2022/03/19 14:13:45;;;;;;;30.05;3.20;;;;;;;;;;5011383;28;20129;-41
2022/03/19 14:16:13;;;;;;;30.87;3.60;;;;;;;;;;5019081;28;20033;-41
2022/03/19 14:18:41;;;;;;;19.27;2.90;;;;;;;;;;5031460;28;20025;-42
2022/03/19 14:21:09;;;;;;;29.02;3.15;;;;;;;;;;5031151;28;20060;-42
2022/03/19 14:23:40;;;;;;;26.10;2.97;;;;;;;;;;5031043;28;20391;-46
2022/03/19 14:26:09;;;;;;;27.02;2.92;;;;;;;;;;5031871;28;20447;-40
2022/03/19 14:28:36;;;;;;;22.25;2.33;;;;;;;;;;5031306;28;20079;-43
2022/03/19 14:31:03;;;;;;;14.40;2.13;;;;;;;;;;5030859;28;20079;-42
2022/03/19 14:33:31;;;;;;;22.42;2.60;;;;;;;;;;5031165;28;20076;-44
2022/03/19 14:36:06;;;;;;;17.70;2.80;;;;;;;;;;5031423;28;20083;-41
2022/03/19 14:38:39;;;;;;;18.42;3.20;;;;;;;;;;5031383;28;20132;-41
2022/03/19 14:41:10;;;;;;;21.23;2.60;;;;;;;;;;5012840;28;20377;-41
2022/03/19 14:43:38;;;;;;;22.58;2.88;;;;;;;;;;5030914;28;20026;-41
2022/03/19 14:46:09;;;;;;;24.27;2.75;;;;;;;;;;5031360;28;20043;-44
2022/03/19 14:48:37;;;;;;;21.63;2.53;;;;;;;;;;5031301;28;20026;-41
2022/03/19 14:51:07;;;;;;;19.08;3.40;;;;;;;;;;5030701;28;20034;-41
2022/03/19 14:53:43;;;;;;;18.45;2.60;;;;;;;;;;5030076;28;20515;-41
2022/03/19 14:56:11;;;;;;;20.30;3.25;;;;;;;;;;5023838;28;20044;-44
2022/03/19 14:58:39;;;;;;;17.48;2.90;;;;;;;;;;5005227;28;20038;-43
2022/03/19 15:01:07;;;;;;;20.20;2.83;;;;;;;;;;5011956;28;20464;-42
2022/03/19 15:03:34;;;;;;;25.05;3.13;;;;;;;;;;5014379;28;20030;-41